7°C Temp
5°C Dewpoint
87% Humidity
Temperature
10 KM/H
6 MPH
5 KTS
160°
South South
East

Wind Speed
Clear
Conditions
Pressure 1026 (hPa) - 30.3 (in)
Visibility 6.2 (mi) - 10.0 (km)

Current Conditions
EGAC
Location George Best Belfast City 7.8(mi)
Metar :EGAC 101250Z AUTO 16005KT 9999 NCD 07/05 Q1026
Mon 10th December 12:50 pm

Airport
  Metar Aviation API Data Provided by https://www.checkwx.com/ CSS/SVG/PHP scripts by weather34.com 2018